sensor_id;sensor_type;location;lat;lon;timestamp;pressure;altitude;pressure_sealevel;temperature;humidity
31346;BME280;21711;49.708;18.568;2022-12-24T00:01:20;96242.63;;;4.55;100.00
31346;BME280;21711;49.708;18.568;2022-12-24T00:03:48;96244.97;;;4.52;100.00
31346;BME280;21711;49.708;18.568;2022-12-24T00:06:21;96251.28;;;4.56;100.00
31346;BME280;21711;49.708;18.568;2022-12-24T00:08:50;96247.59;;;4.57;100.00
31346;BME280;21711;49.708;18.568;2022-12-24T00:11:18;96234.22;;;4.48;100.00
31346;BME280;21711;49.708;18.568;2022-12-24T00:13:46;96235.81;;;4.49;100.00
31346;BME280;21711;49.708;18.568;2022-12-24T00:16:14;96226.88;;;4.45;100.00
31346;BME280;21711;49.708;18.568;2022-12-24T00:18:41;96222.44;;;4.45;100.00
31346;BME280;21711;49.708;18.568;2022-12-24T00:21:14;96227.97;;;4.54;100.00
31346;BME280;21711;49.708;18.568;2022-12-24T00:23:42;96221.69;;;4.60;100.00
31346;BME280;21711;49.708;18.568;2022-12-24T00:26:10;96224.03;;;4.67;100.00
31346;BME280;21711;49.708;18.568;2022-12-24T00:28:37;96212.50;;;4.58;100.00
31346;BME280;21711;49.708;18.568;2022-12-24T00:31:17;96218.53;;;4.64;100.00
31346;BME280;21711;49.708;18.568;2022-12-24T00:33:46;96210.19;;;4.67;100.00
31346;BME280;21711;49.708;18.568;2022-12-24T00:36:14;96228.53;;;4.72;100.00
31346;BME280;21711;49.708;18.568;2022-12-24T00:38:42;96221.72;;;4.66;100.00
31346;BME280;21711;49.708;18.568;2022-12-24T00:41:11;96226.97;;;4.86;100.00
31346;BME280;21711;49.708;18.568;2022-12-24T00:44:02;96222.53;;;4.92;100.00
31346;BME280;21711;49.708;18.568;2022-12-24T00:46:33;96214.66;;;4.92;100.00
31346;BME280;21711;49.708;18.568;2022-12-24T00:49:01;96219.91;;;4.92;100.00
31346;BME280;21711;49.708;18.568;2022-12-24T00:51:28;96229.59;;;4.92;100.00
31346;BME280;21711;49.708;18.568;2022-12-24T00:53:56;96230.66;;;4.96;100.00
31346;BME280;21711;49.708;18.568;2022-12-24T00:56:24;96239.31;;;5.02;100.00
31346;BME280;21711;49.708;18.568;2022-12-24T00:58:51;96242.44;;;5.09;100.00
31346;BME280;21711;49.708;18.568;2022-12-24T01:01:22;96248.19;;;4.95;100.00
31346;BME280;21711;49.708;18.568;2022-12-24T01:03:50;96245.31;;;4.86;100.00
31346;BME280;21711;49.708;18.568;2022-12-24T01:06:20;96246.63;;;4.89;100.00
31346;BME280;21711;49.708;18.568;2022-12-24T01:08:51;96246.06;;;4.82;100.00
31346;BME280;21711;49.708;18.568;2022-12-24T01:11:18;96258.09;;;4.67;100.00
31346;BME280;21711;49.708;18.568;2022-12-24T01:13:45;96255.47;;;4.72;100.00
31346;BME280;21711;49.708;18.568;2022-12-24T01:16:19;96256.00;;;4.64;100.00
31346;BME280;21711;49.708;18.568;2022-12-24T01:18:47;96254.13;;;4.49;100.00
31346;BME280;21711;49.708;18.568;2022-12-24T01:21:15;96251.78;;;4.58;100.00
31346;BME280;21711;49.708;18.568;2022-12-24T01:23:43;96261.53;;;4.83;100.00
31346;BME280;21711;49.708;18.568;2022-12-24T01:26:10;96260.22;;;4.81;100.00
31346;BME280;21711;49.708;18.568;2022-12-24T01:28:41;96262.56;;;4.72;100.00
31346;BME280;21711;49.708;18.568;2022-12-24T01:31:17;96252.38;;;4.81;100.00
31346;BME280;21711;49.708;18.568;2022-12-24T01:33:47;96254.47;;;5.05;100.00
31346;BME280;21711;49.708;18.568;2022-12-24T01:36:15;96251.34;;;5.08;100.00
31346;BME280;21711;49.708;18.568;2022-12-24T01:38:42;96246.09;;;4.97;100.00
31346;BME280;21711;49.708;18.568;2022-12-24T01:41:20;96244.25;;;4.93;100.00
31346;BME280;21711;49.708;18.568;2022-12-24T01:44:32;96239.25;;;4.86;100.00
31346;BME280;21711;49.708;18.568;2022-12-24T01:47:11;96238.22;;;4.87;100.00
31346;BME280;21711;49.708;18.568;2022-12-24T01:49:50;96233.25;;;4.96;100.00
31346;BME280;21711;49.708;18.568;2022-12-24T01:52:32;96231.69;;;4.95;100.00
31346;BME280;21711;49.708;18.568;2022-12-24T01:55:14;96236.41;;;5.29;100.00
31346;BME280;21711;49.708;18.568;2022-12-24T01:57:56;96227.22;;;5.37;100.00
31346;BME280;21711;49.708;18.568;2022-12-24T02:00:26;96236.13;;;5.46;100.00
31346;BME280;21711;49.708;18.568;2022-12-24T02:02:53;96230.63;;;5.53;100.00
31346;BME280;21711;49.708;18.568;2022-12-24T02:05:28;96225.34;;;5.63;100.00
31346;BME280;21711;49.708;18.568;2022-12-24T02:07:59;96237.66;;;5.78;100.00
31346;BME280;21711;49.708;18.568;2022-12-24T02:10:27;96232.09;;;6.06;100.00
31346;BME280;21711;49.708;18.568;2022-12-24T02:12:56;96232.72;;;6.38;100.00
31346;BME280;21711;49.708;18.568;2022-12-24T02:15:25;96240.09;;;6.41;100.00
31346;BME280;21711;49.708;18.568;2022-12-24T02:18:09;96231.06;;;6.57;100.00
31346;BME280;21711;49.708;18.568;2022-12-24T02:26:40;96238.19;;;6.97;100.00
31346;BME280;21711;49.708;18.568;2022-12-24T02:29:54;96235.34;;;7.23;100.00
31346;BME280;21711;49.708;18.568;2022-12-24T02:38:42;96284.44;;;6.98;100.00
31346;BME280;21711;49.708;18.568;2022-12-24T02:41:24;96298.22;;;7.19;100.00
31346;BME280;21711;49.708;18.568;2022-12-24T02:43:54;96286.78;;;7.00;100.00
31346;BME280;21711;49.708;18.568;2022-12-24T02:46:27;96291.22;;;7.04;100.00
31346;BME280;21711;49.708;18.568;2022-12-24T02:48:56;96299.34;;;7.08;100.00
31346;BME280;21711;49.708;18.568;2022-12-24T02:51:25;96289.97;;;6.96;100.00
31346;BME280;21711;49.708;18.568;2022-12-24T02:53:52;96317.50;;;7.04;100.00
31346;BME280;21711;49.708;18.568;2022-12-24T03:02:59;96334.88;;;7.00;100.00
31346;BME280;21711;49.708;18.568;2022-12-24T03:05:51;96329.38;;;6.96;100.00
31346;BME280;21711;49.708;18.568;2022-12-24T03:08:58;96327.91;;;7.20;100.00
31346;BME280;21711;49.708;18.568;2022-12-24T03:11:27;96321.69;;;7.10;100.00
31346;BME280;21711;49.708;18.568;2022-12-24T03:13:54;96332.97;;;7.11;100.00
31346;BME280;21711;49.708;18.568;2022-12-24T03:16:26;96338.38;;;6.90;100.00
31346;BME280;21711;49.708;18.568;2022-12-24T03:18:55;96334.38;;;6.98;100.00
31346;BME280;21711;49.708;18.568;2022-12-24T03:21:34;96322.03;;;6.93;100.00
31346;BME280;21711;49.708;18.568;2022-12-24T03:24:04;96331.22;;;6.96;100.00
31346;BME280;21711;49.708;18.568;2022-12-24T03:26:32;96342.00;;;7.00;100.00
31346;BME280;21711;49.708;18.568;2022-12-24T03:29:05;96333.53;;;7.03;100.00
31346;BME280;21711;49.708;18.568;2022-12-24T03:31:47;96338.84;;;6.97;100.00
31346;BME280;21711;49.708;18.568;2022-12-24T03:34:17;96335.94;;;6.99;100.00
31346;BME280;21711;49.708;18.568;2022-12-24T03:36:46;96343.84;;;6.94;100.00
31346;BME280;21711;49.708;18.568;2022-12-24T03:39:14;96335.16;;;6.99;100.00
31346;BME280;21711;49.708;18.568;2022-12-24T03:41:42;96345.94;;;6.97;100.00
31346;BME280;21711;49.708;18.568;2022-12-24T03:44:09;96348.84;;;6.95;100.00
31346;BME280;21711;49.708;18.568;2022-12-24T03:46:37;96350.19;;;6.93;100.00
31346;BME280;21711;49.708;18.568;2022-12-24T03:49:04;96354.88;;;7.01;100.00
31346;BME280;21711;49.708;18.568;2022-12-24T03:51:31;96347.72;;;7.07;100.00
31346;BME280;21711;49.708;18.568;2022-12-24T03:53:59;96358.31;;;6.96;100.00
31346;BME280;21711;49.708;18.568;2022-12-24T03:56:26;96351.94;;;7.03;100.00
31346;BME280;21711;49.708;18.568;2022-12-24T03:58:54;96343.31;;;6.97;100.00
31346;BME280;21711;49.708;18.568;2022-12-24T04:01:21;96350.16;;;6.98;100.00
31346;BME280;21711;49.708;18.568;2022-12-24T04:03:49;96350.31;;;7.12;100.00
31346;BME280;21711;49.708;18.568;2022-12-24T04:06:16;96340.31;;;7.19;100.00
31346;BME280;21711;49.708;18.568;2022-12-24T04:08:44;96351.00;;;7.28;100.00
31346;BME280;21711;49.708;18.568;2022-12-24T04:11:14;96351.59;;;7.25;100.00
31346;BME280;21711;49.708;18.568;2022-12-24T04:13:41;96356.13;;;7.09;100.00
31346;BME280;21711;49.708;18.568;2022-12-24T04:16:12;96347.94;;;7.16;100.00
31346;BME280;21711;49.708;18.568;2022-12-24T04:18:40;96364.72;;;7.25;100.00
31346;BME280;21711;49.708;18.568;2022-12-24T04:21:08;96375.00;;;7.16;100.00
31346;BME280;21711;49.708;18.568;2022-12-24T04:23:37;96369.50;;;7.18;100.00
31346;BME280;21711;49.708;18.568;2022-12-24T04:26:07;96370.59;;;7.12;100.00
31346;BME280;21711;49.708;18.568;2022-12-24T04:28:36;96375.59;;;7.03;100.00
31346;BME280;21711;49.708;18.568;2022-12-24T04:31:07;96379.00;;;7.08;100.00
31346;BME280;21711;49.708;18.568;2022-12-24T04:33:35;96395.84;;;7.07;100.00
31346;BME280;21711;49.708;18.568;2022-12-24T04:36:05;96393.41;;;7.21;100.00
31346;BME280;21711;49.708;18.568;2022-12-24T04:38:33;96397.09;;;7.20;100.00
31346;BME280;21711;49.708;18.568;2022-12-24T04:41:05;96396.84;;;7.17;100.00
31346;BME280;21711;49.708;18.568;2022-12-24T04:43:33;96402.38;;;7.15;100.00
31346;BME280;21711;49.708;18.568;2022-12-24T04:46:13;96400.63;;;6.95;100.00
31346;BME280;21711;49.708;18.568;2022-12-24T04:48:41;96403.53;;;6.99;100.00
31346;BME280;21711;49.708;18.568;2022-12-24T04:51:10;96404.81;;;6.96;100.00
31346;BME280;21711;49.708;18.568;2022-12-24T04:53:39;96412.72;;;7.01;100.00
31346;BME280;21711;49.708;18.568;2022-12-24T04:56:26;96411.16;;;6.90;100.00
31346;BME280;21711;49.708;18.568;2022-12-24T04:58:54;96409.84;;;6.87;100.00
31346;BME280;21711;49.708;18.568;2022-12-24T05:01:24;96411.13;;;6.95;100.00
31346;BME280;21711;49.708;18.568;2022-12-24T05:03:53;96405.41;;;6.82;100.00
31346;BME280;21711;49.708;18.568;2022-12-24T05:06:28;96413.00;;;6.84;100.00
31346;BME280;21711;49.708;18.568;2022-12-24T05:08:57;96418.81;;;6.81;100.00
31346;BME280;21711;49.708;18.568;2022-12-24T05:11:25;96414.56;;;6.95;100.00
31346;BME280;21711;49.708;18.568;2022-12-24T05:13:53;96421.06;;;7.08;100.00
31346;BME280;21711;49.708;18.568;2022-12-24T05:16:22;96413.94;;;7.19;100.00
31346;BME280;21711;49.708;18.568;2022-12-24T05:18:50;96417.03;;;7.27;100.00
31346;BME280;21711;49.708;18.568;2022-12-24T05:21:20;96432.03;;;7.26;100.00
31346;BME280;21711;49.708;18.568;2022-12-24T05:23:48;96426.59;;;7.07;100.00
31346;BME280;21711;49.708;18.568;2022-12-24T05:26:53;96432.84;;;7.21;100.00
31346;BME280;21711;49.708;18.568;2022-12-24T05:29:22;96432.06;;;7.21;100.00
31346;BME280;21711;49.708;18.568;2022-12-24T05:31:49;96428.13;;;7.18;100.00
31346;BME280;21711;49.708;18.568;2022-12-24T05:34:17;96428.94;;;7.14;100.00
31346;BME280;21711;49.708;18.568;2022-12-24T05:36:44;96437.03;;;7.28;100.00
31346;BME280;21711;49.708;18.568;2022-12-24T05:39:16;96442.06;;;7.14;100.00
31346;BME280;21711;49.708;18.568;2022-12-24T05:41:45;96433.88;;;7.26;100.00
31346;BME280;21711;49.708;18.568;2022-12-24T05:44:14;96434.63;;;7.31;100.00
31346;BME280;21711;49.708;18.568;2022-12-24T05:46:43;96443.69;;;7.04;100.00
31346;BME280;21711;49.708;18.568;2022-12-24T05:49:11;96448.16;;;7.09;100.00
31346;BME280;21711;49.708;18.568;2022-12-24T05:51:39;96449.50;;;7.06;100.00
31346;BME280;21711;49.708;18.568;2022-12-24T05:54:07;96441.81;;;7.15;100.00
31346;BME280;21711;49.708;18.568;2022-12-24T05:56:34;96439.72;;;7.12;100.00
31346;BME280;21711;49.708;18.568;2022-12-24T05:59:02;96444.09;;;7.32;100.00
31346;BME280;21711;49.708;18.568;2022-12-24T06:01:29;96455.91;;;7.35;100.00
31346;BME280;21711;49.708;18.568;2022-12-24T06:03:57;96453.59;;;7.23;100.00
31346;BME280;21711;49.708;18.568;2022-12-24T06:06:26;96453.84;;;7.32;100.00
31346;BME280;21711;49.708;18.568;2022-12-24T06:08:55;96450.69;;;7.30;100.00
31346;BME280;21711;49.708;18.568;2022-12-24T06:11:26;96462.75;;;7.36;100.00
31346;BME280;21711;49.708;18.568;2022-12-24T06:13:54;96470.44;;;7.27;100.00
31346;BME280;21711;49.708;18.568;2022-12-24T06:16:23;96473.03;;;7.32;100.00
31346;BME280;21711;49.708;18.568;2022-12-24T06:18:51;96470.94;;;7.29;100.00
31346;BME280;21711;49.708;18.568;2022-12-24T06:21:18;96477.50;;;7.37;100.00
31346;BME280;21711;49.708;18.568;2022-12-24T06:23:46;96480.63;;;7.39;100.00
31346;BME280;21711;49.708;18.568;2022-12-24T06:26:20;96485.09;;;7.39;100.00
31346;BME280;21711;49.708;18.568;2022-12-24T06:28:49;96487.50;;;7.30;100.00
31346;BME280;21711;49.708;18.568;2022-12-24T06:31:20;96489.56;;;7.43;100.00
31346;BME280;21711;49.708;18.568;2022-12-24T06:33:48;96494.28;;;7.41;100.00
31346;BME280;21711;49.708;18.568;2022-12-24T06:36:22;96509.03;;;7.42;100.00
31346;BME280;21711;49.708;18.568;2022-12-24T06:38:50;96508.22;;;7.47;100.00
31346;BME280;21711;49.708;18.568;2022-12-24T06:41:19;96508.81;;;7.28;100.00
31346;BME280;21711;49.708;18.568;2022-12-24T06:43:49;96510.38;;;7.34;100.00
31346;BME280;21711;49.708;18.568;2022-12-24T06:46:17;96513.75;;;7.40;100.00
31346;BME280;21711;49.708;18.568;2022-12-24T06:48:46;96515.34;;;7.46;100.00
31346;BME280;21711;49.708;18.568;2022-12-24T06:51:16;96512.13;;;7.49;100.00
31346;BME280;21711;49.708;18.568;2022-12-24T06:53:48;96515.59;;;7.45;100.00
31346;BME280;21711;49.708;18.568;2022-12-24T06:56:18;96515.59;;;7.45;100.00
31346;BME280;21711;49.708;18.568;2022-12-24T06:58:46;96519.81;;;7.41;100.00
31346;BME280;21711;49.708;18.568;2022-12-24T07:01:15;96527.44;;;7.42;100.00
31346;BME280;21711;49.708;18.568;2022-12-24T07:03:43;96525.84;;;7.41;100.00
31346;BME280;21711;49.708;18.568;2022-12-24T07:06:25;96516.41;;;7.35;100.00
31346;BME280;21711;49.708;18.568;2022-12-24T07:08:52;96528.78;;;7.40;100.00
31346;BME280;21711;49.708;18.568;2022-12-24T07:11:23;96525.28;;;7.49;100.00
31346;BME280;21711;49.708;18.568;2022-12-24T07:13:50;96533.19;;;7.49;100.00
31346;BME280;21711;49.708;18.568;2022-12-24T07:16:18;96539.72;;;7.57;100.00
31346;BME280;21711;49.708;18.568;2022-12-24T07:18:45;96547.34;;;7.59;100.00
31346;BME280;21711;49.708;18.568;2022-12-24T07:21:13;96545.53;;;7.59;100.00
31346;BME280;21711;49.708;18.568;2022-12-24T07:23:40;96538.41;;;7.60;100.00
31346;BME280;21711;49.708;18.568;2022-12-24T07:26:07;96542.09;;;7.59;100.00
31346;BME280;21711;49.708;18.568;2022-12-24T07:28:34;96541.53;;;7.67;100.00
31346;BME280;21711;49.708;18.568;2022-12-24T07:31:02;96542.34;;;7.62;100.00
31346;BME280;21711;49.708;18.568;2022-12-24T07:33:29;96558.16;;;7.52;100.00
31346;BME280;21711;49.708;18.568;2022-12-24T07:36:05;96550.06;;;7.43;100.00
31346;BME280;21711;49.708;18.568;2022-12-24T07:38:34;96547.22;;;7.34;100.00
31346;BME280;21711;49.708;18.568;2022-12-24T07:41:01;96559.53;;;7.44;100.00
31346;BME280;21711;49.708;18.568;2022-12-24T07:43:31;96566.31;;;7.61;100.00
31346;BME280;21711;49.708;18.568;2022-12-24T07:45:58;96561.53;;;7.68;100.00
31346;BME280;21711;49.708;18.568;2022-12-24T07:48:27;96568.63;;;7.73;100.00
31346;BME280;21711;49.708;18.568;2022-12-24T07:50:56;96567.75;;;7.88;100.00
31346;BME280;21711;49.708;18.568;2022-12-24T07:53:25;96569.88;;;7.86;100.00
31346;BME280;21711;49.708;18.568;2022-12-24T07:55:53;96561.44;;;7.89;100.00
31346;BME280;21711;49.708;18.568;2022-12-24T07:58:21;96561.47;;;7.79;100.00
31346;BME280;21711;49.708;18.568;2022-12-24T08:00:57;96566.91;;;7.98;100.00
31346;BME280;21711;49.708;18.568;2022-12-24T08:03:25;96573.25;;;7.97;100.00
31346;BME280;21711;49.708;18.568;2022-12-24T08:05:53;96582.84;;;8.17;100.00
31346;BME280;21711;49.708;18.568;2022-12-24T08:08:21;96580.47;;;8.21;100.00
31346;BME280;21711;49.708;18.568;2022-12-24T08:10:48;96582.53;;;8.24;100.00
31346;BME280;21711;49.708;18.568;2022-12-24T08:13:16;96591.81;;;8.16;100.00
31346;BME280;21711;49.708;18.568;2022-12-24T08:15:44;96586.53;;;8.16;100.00
31346;BME280;21711;49.708;18.568;2022-12-24T08:18:12;96584.44;;;8.18;100.00
31346;BME280;21711;49.708;18.568;2022-12-24T08:20:40;96592.16;;;8.44;100.00
31346;BME280;21711;49.708;18.568;2022-12-24T08:23:07;96590.41;;;8.69;100.00
31346;BME280;21711;49.708;18.568;2022-12-24T08:25:36;96595.38;;;8.76;100.00
31346;BME280;21711;49.708;18.568;2022-12-24T08:28:04;96614.22;;;8.59;100.00
31346;BME280;21711;49.708;18.568;2022-12-24T08:30:32;96613.16;;;8.60;100.00
31346;BME280;21711;49.708;18.568;2022-12-24T08:33:00;96610.78;;;8.63;100.00
31346;BME280;21711;49.708;18.568;2022-12-24T08:35:27;96613.72;;;8.57;100.00
31346;BME280;21711;49.708;18.568;2022-12-24T08:37:55;96617.25;;;8.36;100.00
31346;BME280;21711;49.708;18.568;2022-12-24T08:40:22;96634.28;;;8.54;100.00
31346;BME280;21711;49.708;18.568;2022-12-24T08:42:50;96632.16;;;8.51;100.00
31346;BME280;21711;49.708;18.568;2022-12-24T08:45:18;96640.38;;;8.45;100.00
31346;BME280;21711;49.708;18.568;2022-12-24T08:47:46;96644.06;;;8.49;100.00
31346;BME280;21711;49.708;18.568;2022-12-24T08:50:14;96648.31;;;8.39;100.00
31346;BME280;21711;49.708;18.568;2022-12-24T08:52:41;96658.00;;;8.49;100.00
31346;BME280;21711;49.708;18.568;2022-12-24T08:55:09;96666.19;;;8.42;100.00
31346;BME280;21711;49.708;18.568;2022-12-24T08:57:37;96656.88;;;8.66;100.00
31346;BME280;21711;49.708;18.568;2022-12-24T09:00:06;96666.94;;;8.59;100.00
31346;BME280;21711;49.708;18.568;2022-12-24T09:02:34;96671.69;;;8.51;100.00
31346;BME280;21711;49.708;18.568;2022-12-24T09:05:02;96671.50;;;8.37;100.00
31346;BME280;21711;49.708;18.568;2022-12-24T09:07:29;96671.97;;;8.50;100.00
31346;BME280;21711;49.708;18.568;2022-12-24T09:09:57;96678.59;;;9.22;100.00
31346;BME280;21711;49.708;18.568;2022-12-24T09:12:25;96666.50;;;9.16;100.00
31346;BME280;21711;49.708;18.568;2022-12-24T09:14:52;96676.91;;;9.02;100.00
31346;BME280;21711;49.708;18.568;2022-12-24T09:17:29;96672.34;;;8.78;100.00
31346;BME280;21711;49.708;18.568;2022-12-24T09:19:56;96670.16;;;8.85;100.00
31346;BME280;21711;49.708;18.568;2022-12-24T09:22:24;96673.63;;;9.15;100.00
31346;BME280;21711;49.708;18.568;2022-12-24T09:24:53;96677.16;;;9.35;100.00
31346;BME280;21711;49.708;18.568;2022-12-24T09:27:21;96671.72;;;9.51;100.00
31346;BME280;21711;49.708;18.568;2022-12-24T09:29:48;96674.06;;;9.52;100.00
31346;BME280;21711;49.708;18.568;2022-12-24T09:32:16;96671.06;;;9.34;100.00
31346;BME280;21711;49.708;18.568;2022-12-24T09:34:43;96671.38;;;9.82;100.00
31346;BME280;21711;49.708;18.568;2022-12-24T09:37:11;96679.00;;;10.71;100.00
31346;BME280;21711;49.708;18.568;2022-12-24T09:39:38;96689.25;;;10.91;100.00
31346;BME280;21711;49.708;18.568;2022-12-24T09:42:37;96679.56;;;10.68;100.00
31346;BME280;21711;49.708;18.568;2022-12-24T09:45:23;96677.84;;;9.70;100.00
31346;BME280;21711;49.708;18.568;2022-12-24T09:48:02;96672.06;;;9.68;100.00
31346;BME280;21711;49.708;18.568;2022-12-24T09:50:49;96676.72;;;9.77;100.00
31346;BME280;21711;49.708;18.568;2022-12-24T09:56:38;96688.72;;;9.39;100.00
31346;BME280;21711;49.708;18.568;2022-12-24T09:59:17;96678.91;;;9.15;100.00
31346;BME280;21711;49.708;18.568;2022-12-24T10:01:49;96682.84;;;9.18;100.00
31346;BME280;21711;49.708;18.568;2022-12-24T10:04:23;96686.88;;;9.10;100.00
31346;BME280;21711;49.708;18.568;2022-12-24T10:10:35;96695.06;;;9.08;100.00
31346;BME280;21711;49.708;18.568;2022-12-24T10:15:56;96699.78;;;8.77;100.00
31346;BME280;21711;49.708;18.568;2022-12-24T10:18:58;96712.38;;;8.80;100.00
31346;BME280;21711;49.708;18.568;2022-12-24T10:27:38;96727.41;;;8.85;100.00
31346;BME280;21711;49.708;18.568;2022-12-24T10:30:18;96745.38;;;8.77;100.00
31346;BME280;21711;49.708;18.568;2022-12-24T10:32:51;96742.41;;;8.84;100.00
31346;BME280;21711;49.708;18.568;2022-12-24T10:35:24;96749.88;;;8.72;100.00
31346;BME280;21711;49.708;18.568;2022-12-24T10:37:52;96755.72;;;8.63;100.00
31346;BME280;21711;49.708;18.568;2022-12-24T10:40:48;96756.72;;;8.78;100.00
31346;BME280;21711;49.708;18.568;2022-12-24T10:44:26;96755.13;;;8.77;100.00
31346;BME280;21711;49.708;18.568;2022-12-24T10:46:56;96752.31;;;8.58;100.00
31346;BME280;21711;49.708;18.568;2022-12-24T10:49:53;96757.09;;;8.45;100.00
31346;BME280;21711;49.708;18.568;2022-12-24T10:52:29;96760.25;;;8.52;100.00
31346;BME280;21711;49.708;18.568;2022-12-24T10:55:21;96756.84;;;8.41;100.00
31346;BME280;21711;49.708;18.568;2022-12-24T10:58:55;96762.13;;;8.41;100.00
31346;BME280;21711;49.708;18.568;2022-12-24T11:02:37;96781.06;;;8.49;100.00
31346;BME280;21711;49.708;18.568;2022-12-24T11:05:46;96773.44;;;8.52;100.00
31346;BME280;21711;49.708;18.568;2022-12-24T11:08:26;96779.53;;;8.32;100.00
31346;BME280;21711;49.708;18.568;2022-12-24T11:11:06;96784.78;;;8.37;100.00
31346;BME280;21711;49.708;18.568;2022-12-24T11:13:43;96786.06;;;8.61;100.00
31346;BME280;21711;49.708;18.568;2022-12-24T11:16:27;96782.66;;;8.50;100.00
31346;BME280;21711;49.708;18.568;2022-12-24T11:19:01;96791.88;;;8.58;100.00
31346;BME280;21711;49.708;18.568;2022-12-24T11:21:35;96788.22;;;8.38;100.00
31346;BME280;21711;49.708;18.568;2022-12-24T11:24:23;96800.56;;;8.58;100.00
31346;BME280;21711;49.708;18.568;2022-12-24T11:26:52;96805.53;;;8.70;100.00
31346;BME280;21711;49.708;18.568;2022-12-24T11:29:26;96805.03;;;8.58;100.00
31346;BME280;21711;49.708;18.568;2022-12-24T11:32:20;96808.22;;;8.54;100.00
31346;BME280;21711;49.708;18.568;2022-12-24T11:34:49;96812.13;;;8.62;100.00
31346;BME280;21711;49.708;18.568;2022-12-24T11:37:22;96812.69;;;8.59;100.00
31346;BME280;21711;49.708;18.568;2022-12-24T11:39:54;96814.00;;;8.57;100.00
31346;BME280;21711;49.708;18.568;2022-12-24T11:42:35;96814.25;;;8.60;100.00
31346;BME280;21711;49.708;18.568;2022-12-24T11:45:24;96818.72;;;8.60;100.00
31346;BME280;21711;49.708;18.568;2022-12-24T11:47:53;96831.16;;;8.38;100.00
31346;BME280;21711;49.708;18.568;2022-12-24T11:50:33;96830.59;;;8.57;100.00
31346;BME280;21711;49.708;18.568;2022-12-24T11:55:48;96845.38;;;8.58;100.00
31346;BME280;21711;49.708;18.568;2022-12-24T11:58:50;96849.59;;;8.49;100.00
31346;BME280;21711;49.708;18.568;2022-12-24T12:04:32;96847.47;;;8.51;100.00
31346;BME280;21711;49.708;18.568;2022-12-24T12:07:14;96849.03;;;8.57;100.00
31346;BME280;21711;49.708;18.568;2022-12-24T12:09:51;96850.06;;;8.66;100.00
31346;BME280;21711;49.708;18.568;2022-12-24T12:12:31;96851.03;;;8.91;100.00
31346;BME280;21711;49.708;18.568;2022-12-24T12:15:16;96856.03;;;8.88;100.00
31346;BME280;21711;49.708;18.568;2022-12-24T12:17:50;96865.22;;;9.01;100.00
31346;BME280;21711;49.708;18.568;2022-12-24T12:20:43;96869.47;;;8.97;100.00
31346;BME280;21711;49.708;18.568;2022-12-24T12:23:34;96870.25;;;8.92;100.00
31346;BME280;21711;49.708;18.568;2022-12-24T12:26:28;96880.84;;;8.81;100.00
31346;BME280;21711;49.708;18.568;2022-12-24T12:29:05;96888.22;;;8.90;100.00
31346;BME280;21711;49.708;18.568;2022-12-24T12:31:50;96881.16;;;8.75;100.00
31346;BME280;21711;49.708;18.568;2022-12-24T12:34:31;96892.16;;;8.92;100.00
31346;BME280;21711;49.708;18.568;2022-12-24T12:39:43;96899.09;;;8.62;100.00
31346;BME280;21711;49.708;18.568;2022-12-24T12:42:36;96899.06;;;8.83;100.00
31346;BME280;21711;49.708;18.568;2022-12-24T12:45:47;96909.06;;;8.81;100.00
31346;BME280;21711;49.708;18.568;2022-12-24T12:49:04;96912.28;;;8.73;100.00
31346;BME280;21711;49.708;18.568;2022-12-24T12:51:56;96914.94;;;8.67;100.00
31346;BME280;21711;49.708;18.568;2022-12-24T12:57:34;96924.91;;;8.71;100.00
31346;BME280;21711;49.708;18.568;2022-12-24T13:00:07;96929.69;;;8.63;100.00
31346;BME280;21711;49.708;18.568;2022-12-24T13:03:22;96936.81;;;8.63;100.00
31346;BME280;21711;49.708;18.568;2022-12-24T13:09:29;96956.59;;;8.60;100.00
31346;BME280;21711;49.708;18.568;2022-12-24T13:22:58;96956.88;;;8.27;100.00
31346;BME280;21711;49.708;18.568;2022-12-24T13:25:36;96963.47;;;8.25;100.00
31346;BME280;21711;49.708;18.568;2022-12-24T13:28:32;96954.78;;;8.03;100.00
31346;BME280;21711;49.708;18.568;2022-12-24T13:31:22;96975.03;;;8.34;100.00
31346;BME280;21711;49.708;18.568;2022-12-24T13:33:57;96974.50;;;8.42;100.00
31346;BME280;21711;49.708;18.568;2022-12-24T13:37:15;96974.25;;;8.28;100.00
31346;BME280;21711;49.708;18.568;2022-12-24T13:50:52;96998.72;;;8.29;100.00
31346;BME280;21711;49.708;18.568;2022-12-24T13:58:50;97019.81;;;7.98;100.00
31346;BME280;21711;49.708;18.568;2022-12-24T14:01:31;97029.03;;;8.06;100.00
31346;BME280;21711;49.708;18.568;2022-12-24T14:04:02;97024.00;;;8.04;100.00
31346;BME280;21711;49.708;18.568;2022-12-24T14:06:38;97026.66;;;7.99;100.00
31346;BME280;21711;49.708;18.568;2022-12-24T14:09:14;97035.59;;;8.03;100.00
31346;BME280;21711;49.708;18.568;2022-12-24T14:14:40;97042.16;;;7.90;100.00
31346;BME280;21711;49.708;18.568;2022-12-24T14:17:24;97037.69;;;7.90;100.00
31346;BME280;21711;49.708;18.568;2022-12-24T14:20:00;97042.94;;;7.90;100.00
31346;BME280;21711;49.708;18.568;2022-12-24T14:22:37;97048.50;;;7.99;100.00
31346;BME280;21711;49.708;18.568;2022-12-24T14:25:20;97053.75;;;7.89;100.00
31346;BME280;21711;49.708;18.568;2022-12-24T14:27:58;97046.88;;;7.83;100.00
31346;BME280;21711;49.708;18.568;2022-12-24T14:30:30;97059.56;;;7.96;100.00
31346;BME280;21711;49.708;18.568;2022-12-24T14:32:58;97067.94;;;7.88;100.00
31346;BME280;21711;49.708;18.568;2022-12-24T14:35:36;97062.16;;;7.75;100.00
31346;BME280;21711;49.708;18.568;2022-12-24T14:38:14;97071.13;;;7.85;100.00
31346;BME280;21711;49.708;18.568;2022-12-24T14:44:33;97080.81;;;7.74;100.00
31346;BME280;21711;49.708;18.568;2022-12-24T14:50:43;97093.94;;;7.63;100.00
31346;BME280;21711;49.708;18.568;2022-12-24T14:53:20;97104.50;;;7.69;100.00